KXMR

Details ICAO KXMR
Name CAPE CANAVERAL AFS SKID STRIP
Region United States
Timezone America/New_York (UTC-5.0)
Plans Departing 11
Arriving 22
Stats Elevation 10 ft / 3 m (AMSL)
Location 28.467586° -80.566615°
Runways 1
Magnetic Variation 6.872° W
Sunrise 2017-12-12 12:06:48 UTC / 2017-12-12 07:06:48 Local
Sunset 2017-12-12 22:28:15 UTC / 2017-12-12 17:28:15 Local
Advertisement - Login to hide

Runways

ID Width Length Bearing (true) Bearing (mag) Surface Threshold Offset Overrun Length
13 200 ft / 61 m 10,002 ft / 3,049 m 127.93° 134.80° Asphalt 0 ft / 0 m 0 ft / 0 m
31 200 ft / 61 m 10,002 ft / 3,049 m 307.94° 314.81° Asphalt 0 ft / 0 m 0 ft / 0 m

Map

Weather


0- 5 10 15 20 25 30 35+ Temperature / ° C

Clouds and Precipitation
Forecast for 2017-12-12 12:00 UTC. Updated an hour ago

Ground ~20,000 ft ~40,000 ft Winds

METAR

KXMR 120958Z AUTO 20003KT 10SM CLR 05/03 A3006 RMK AO2 SLP182 T00480029 $

TAF

Not found

Frequencies

Tower 118.62 MHz CAPE TWR
Approach 134.95 MHz ORLANDO APP/DEP
Warning: Do not use this data for real-world aviation or navigation. No guarantee of current accuracy is given.